»·PEaware :: N112PC KSTS-KFCH

N112PC :: KSTS-KFCH

FLIGHT INFORMATION

Flight Status: Arrived
Operator: Privately registered:
United States
More flights under this callsign
Pilot: Gabor H. (24209)
Aircraft: PILATUS PC-12 EAGLE
(PC12)
More flights by this aircraft type
Origin: KSTS Sonoma Co
United States
Destination: KFCH Fresno-Chandler Downtown
United States
More flights between these airports :: More routes between these airports
Route: STS8 SNUPY V494 SAC V23 BEREN
File this flight plan on PilotEdge
Remarks:
Altitude:
(Current/Filed)
17,000ft
Speed:
(Current/Filed)
270kts
Departed: 08-Aug-19 08:26 PM
Arrived: 08-Aug-19 09:19 PM
Distance/Time
Traveled:
178nm/0:53
Distance/Time
To Go:
Arrived

Flight Plot

Page will automatically refresh every two minutes.

Flight plan parsing failed; only flown route is shown


Map Options




Map Legend


Flown Route
Filed Route
Departure Airport
Arrival Airport
Navaid (VOR, NDB)
Fix

Horizontal Profiles

Position Reports

Time Latitude Longitude Heading Altitude Ground
Speed
08-Aug-19 20:08 38.512391 -122.805261 179 128ft 0kts
08-Aug-19 20:09 38.512391 -122.805261 179 128ft 0kts
08-Aug-19 20:10 38.512391 -122.805261 179 128ft 0kts
08-Aug-19 20:11 38.512391 -122.805261 179 128ft 0kts
08-Aug-19 20:12 38.512391 -122.805261 179 128ft 0kts
08-Aug-19 20:13 38.512391 -122.805261 179 128ft 0kts
08-Aug-19 20:14 38.512391 -122.805261 179 128ft 0kts
08-Aug-19 20:15 38.512391 -122.805261 179 128ft 0kts
08-Aug-19 20:16 38.512391 -122.805261 179 128ft 0kts
08-Aug-19 20:17 38.512391 -122.805261 179 128ft 0kts
08-Aug-19 20:18 38.512391 -122.805261 179 128ft 0kts
08-Aug-19 20:19 38.512154 -122.806347 231 128ft 8kts
08-Aug-19 20:20 38.510703 -122.808559 178 128ft 10kts
08-Aug-19 20:21 38.507661 -122.806932 157 128ft 13kts
08-Aug-19 20:22 38.504227 -122.805071 157 128ft 13kts
08-Aug-19 20:23 38.502772 -122.804660 236 128ft 0kts
08-Aug-19 20:24 38.502602 -122.805462 285 128ft 12kts
08-Aug-19 20:25 38.519930 -122.815114 338 738ft 131kts
08-Aug-19 20:26 38.558108 -122.835061 335 2293ft 157kts
08-Aug-19 20:27 38.599897 -122.854847 335 3804ft 162kts
08-Aug-19 20:28 38.627067 -122.826138 105 5309ft 169kts
08-Aug-19 20:29 38.609927 -122.769683 122 6815ft 171kts
08-Aug-19 20:30 38.576305 -122.724882 148 8349ft 188kts
08-Aug-19 20:31 38.526262 -122.691484 155 9884ft 219kts
08-Aug-19 20:32 38.493182 -122.625690 103 11397ft 239kts
08-Aug-19 20:33 38.486287 -122.540330 97 12900ft 243kts
08-Aug-19 20:34 38.482964 -122.453442 96 14401ft 246kts
08-Aug-19 20:35 38.481201 -122.365708 100 15899ft 246kts
08-Aug-19 20:36 38.474405 -122.277946 100 16973ft 258kts
08-Aug-19 20:37 38.470366 -122.182135 100 16968ft 275kts
08-Aug-19 20:38 38.461345 -122.084817 101 16958ft 277kts
08-Aug-19 20:39 38.454920 -121.986523 98 16951ft 278kts
08-Aug-19 20:40 38.450542 -121.888187 97 16993ft 278kts
08-Aug-19 20:41 38.447414 -121.789634 95 16995ft 278kts
08-Aug-19 20:42 38.443751 -121.691138 100 16999ft 277kts
08-Aug-19 20:43 38.438579 -121.592932 96 17000ft 278kts
08-Aug-19 20:44 38.402401 -121.510806 133 17001ft 266kts
08-Aug-19 20:45 38.354555 -121.438997 133 17005ft 266kts
08-Aug-19 20:46 38.307744 -121.365982 131 17007ft 266kts
08-Aug-19 20:47 38.260299 -121.293688 137 16989ft 265kts
08-Aug-19 20:48 38.210018 -121.225110 134 17005ft 266kts
08-Aug-19 20:49 38.161814 -121.153700 133 17004ft 266kts
08-Aug-19 20:50 38.115092 -121.081323 132 17003ft 267kts
08-Aug-19 20:51 38.066291 -121.010739 143 17003ft 263kts
08-Aug-19 20:52 38.008408 -120.953957 144 17001ft 263kts
08-Aug-19 20:53 37.951563 -120.895676 143 17002ft 262kts
08-Aug-19 20:54 37.895970 -120.835789 141 16992ft 262kts
08-Aug-19 20:55 37.839874 -120.777023 145 16992ft 261kts
08-Aug-19 20:56 37.782864 -120.719894 147 16992ft 261kts
08-Aug-19 20:57 37.724366 -120.664931 144 16990ft 262kts
08-Aug-19 20:58 37.668234 -120.606035 142 16991ft 263kts
08-Aug-19 20:59 37.611894 -120.547490 146 16981ft 262kts
08-Aug-19 21:00 37.553588 -120.489368 146 16004ft 269kts
08-Aug-19 21:01 37.493669 -120.432796 144 14506ft 270kts
08-Aug-19 21:02 37.435984 -120.371465 145 13006ft 270kts
08-Aug-19 21:03 37.375690 -120.314380 143 11507ft 274kts
08-Aug-19 21:04 37.317231 -120.254177 144 10198ft 268kts
08-Aug-19 21:05 37.258508 -120.196599 139 9199ft 268kts
08-Aug-19 21:06 37.200728 -120.137329 144 8188ft 268kts
08-Aug-19 21:07 37.140274 -120.082741 142 7184ft 265kts
08-Aug-19 21:08 37.083687 -120.024099 138 6184ft 262kts
08-Aug-19 21:09 37.022476 -119.977011 159 5186ft 259kts
08-Aug-19 21:10 36.960170 -119.948048 159 4258ft 255kts
08-Aug-19 21:11 36.894619 -119.915243 157 3259ft 252kts
08-Aug-19 21:12 36.832279 -119.882329 156 2253ft 214kts
08-Aug-19 21:13 36.789070 -119.854804 150 1706ft 147kts
08-Aug-19 21:14 36.754112 -119.830787 161 1305ft 138kts
08-Aug-19 21:15 36.718336 -119.818799 153 1287ft 132kts
08-Aug-19 21:17 36.714052 -119.791927 339 1105ft 96kts
08-Aug-19 21:18 36.728684 -119.814325 306 340ft 60kts
08-Aug-19 21:19 36.731326 -119.819772 128 281ft 6kts
08-Aug-19 21:20 36.729760 -119.818192 271 281ft 0kts

Navigation Log

Ident Type
Flight plan parsing failed, navigation log unavailable